sensor_id;sensor_type;location;lat;lon;timestamp;pressure;altitude;pressure_sealevel;temperature;humidity
41044;BME280;51680;49.806;18.774;2022-07-23T00:02:29;97526.38;;;24.71;62.88
41044;BME280;51680;49.806;18.774;2022-07-23T00:05:32;97528.09;;;24.64;63.29
41044;BME280;51680;49.806;18.774;2022-07-23T00:08:34;97524.31;;;24.58;62.64
41044;BME280;51680;49.806;18.774;2022-07-23T00:11:36;97526.31;;;24.56;63.28
41044;BME280;51680;49.806;18.774;2022-07-23T00:14:38;97529.03;;;24.48;63.62
41044;BME280;51680;49.806;18.774;2022-07-23T00:17:39;97538.06;;;24.47;63.13
41044;BME280;51680;49.806;18.774;2022-07-23T00:20:42;97542.41;;;24.48;62.62
41044;BME280;51680;49.806;18.774;2022-07-23T00:23:44;97544.19;;;24.56;61.27
41044;BME280;51680;49.806;18.774;2022-07-23T00:26:46;97543.09;;;24.65;60.96
41044;BME280;51680;49.806;18.774;2022-07-23T00:29:48;97531.72;;;24.71;60.53
41044;BME280;51680;49.806;18.774;2022-07-23T00:32:51;97537.81;;;24.79;60.21
41044;BME280;51680;49.806;18.774;2022-07-23T00:35:55;97536.56;;;24.67;62.85
41044;BME280;51680;49.806;18.774;2022-07-23T00:38:56;97541.03;;;24.75;61.05
41044;BME280;51680;49.806;18.774;2022-07-23T00:41:58;97537.34;;;24.76;60.79
41044;BME280;51680;49.806;18.774;2022-07-23T00:45:00;97533.66;;;24.77;60.52
41044;BME280;51680;49.806;18.774;2022-07-23T00:48:21;97539.34;;;24.74;60.61
41044;BME280;51680;49.806;18.774;2022-07-23T00:51:24;97529.50;;;24.74;60.86
41044;BME280;51680;49.806;18.774;2022-07-23T00:54:27;97530.59;;;24.65;61.69
41044;BME280;51680;49.806;18.774;2022-07-23T00:57:28;97531.34;;;24.59;62.25
41044;BME280;51680;49.806;18.774;2022-07-23T01:00:49;97536.53;;;24.53;62.35
41044;BME280;51680;49.806;18.774;2022-07-23T01:03:51;97526.19;;;24.50;62.04
41044;BME280;51680;49.806;18.774;2022-07-23T01:06:54;97532.22;;;24.52;61.66
41044;BME280;51680;49.806;18.774;2022-07-23T01:09:56;97538.19;;;24.54;61.07
41044;BME280;51680;49.806;18.774;2022-07-23T01:13:00;97527.16;;;24.57;60.62
41044;BME280;51680;49.806;18.774;2022-07-23T01:16:02;97534.81;;;24.60;60.53
41044;BME280;51680;49.806;18.774;2022-07-23T01:19:04;97527.66;;;24.60;60.55
41044;BME280;51680;49.806;18.774;2022-07-23T01:22:09;97524.47;;;24.57;61.09
41044;BME280;51680;49.806;18.774;2022-07-23T01:25:13;97514.47;;;24.59;60.25
41044;BME280;51680;49.806;18.774;2022-07-23T01:28:20;97514.13;;;24.62;59.53
41044;BME280;51680;49.806;18.774;2022-07-23T01:31:24;97520.75;;;24.66;59.55
41044;BME280;51680;49.806;18.774;2022-07-23T01:34:25;97520.03;;;24.72;59.44
41044;BME280;51680;49.806;18.774;2022-07-23T01:37:28;97526.56;;;24.69;60.52
41044;BME280;51680;49.806;18.774;2022-07-23T01:40:32;97527.28;;;24.63;61.30
41044;BME280;51680;49.806;18.774;2022-07-23T01:43:33;97524.66;;;24.55;61.01
41044;BME280;51680;49.806;18.774;2022-07-23T01:46:38;97536.53;;;24.53;61.42
41044;BME280;51680;49.806;18.774;2022-07-23T01:49:41;97525.56;;;24.48;61.10
41044;BME280;51680;49.806;18.774;2022-07-23T01:52:45;97525.91;;;24.45;61.50
41044;BME280;51680;49.806;18.774;2022-07-23T01:55:48;97522.22;;;24.31;62.51
41044;BME280;51680;49.806;18.774;2022-07-23T01:58:50;97521.16;;;24.18;62.74
41044;BME280;51680;49.806;18.774;2022-07-23T02:01:53;97507.59;;;24.05;63.17
41044;BME280;51680;49.806;18.774;2022-07-23T02:04:55;97509.28;;;23.98;63.20
41044;BME280;51680;49.806;18.774;2022-07-23T02:08:00;97512.34;;;23.87;63.83
41044;BME280;51680;49.806;18.774;2022-07-23T02:11:07;97520.41;;;23.79;64.33
41044;BME280;51680;49.806;18.774;2022-07-23T02:14:09;97516.81;;;23.64;64.94
41044;BME280;51680;49.806;18.774;2022-07-23T02:17:11;97514.03;;;23.57;65.00
41044;BME280;51680;49.806;18.774;2022-07-23T02:20:13;97519.06;;;23.52;65.15
41044;BME280;51680;49.806;18.774;2022-07-23T02:23:17;97528.53;;;23.55;64.92
41044;BME280;51680;49.806;18.774;2022-07-23T02:26:21;97524.81;;;23.64;64.07
41044;BME280;51680;49.806;18.774;2022-07-23T02:29:26;97522.41;;;23.77;63.30
41044;BME280;51680;49.806;18.774;2022-07-23T02:32:28;97517.38;;;23.90;62.83
41044;BME280;51680;49.806;18.774;2022-07-23T02:35:30;97510.59;;;24.02;62.11
41044;BME280;51680;49.806;18.774;2022-07-23T02:38:35;97514.22;;;24.09;62.30
41044;BME280;51680;49.806;18.774;2022-07-23T02:41:39;97512.88;;;24.13;61.97
41044;BME280;51680;49.806;18.774;2022-07-23T02:44:42;97515.34;;;24.14;61.90
41044;BME280;51680;49.806;18.774;2022-07-23T02:47:43;97498.81;;;24.19;61.54
41044;BME280;51680;49.806;18.774;2022-07-23T02:50:45;97499.72;;;24.26;61.25
41044;BME280;51680;49.806;18.774;2022-07-23T02:53:50;97500.84;;;24.31;60.91
41044;BME280;51680;49.806;18.774;2022-07-23T02:56:53;97508.13;;;24.37;60.85
41044;BME280;51680;49.806;18.774;2022-07-23T02:59:55;97508.69;;;24.33;61.21
41044;BME280;51680;49.806;18.774;2022-07-23T03:02:57;97505.44;;;24.23;61.44
41044;BME280;51680;49.806;18.774;2022-07-23T03:05:58;97503.19;;;24.12;62.16
41044;BME280;51680;49.806;18.774;2022-07-23T03:09:00;97504.47;;;24.01;62.42
41044;BME280;51680;49.806;18.774;2022-07-23T03:12:04;97505.25;;;24.02;62.34
41044;BME280;51680;49.806;18.774;2022-07-23T03:15:09;97503.56;;;24.09;61.91
41044;BME280;51680;49.806;18.774;2022-07-23T03:18:11;97505.16;;;24.18;61.24
41044;BME280;51680;49.806;18.774;2022-07-23T03:21:13;97496.03;;;24.27;61.48
41044;BME280;51680;49.806;18.774;2022-07-23T03:24:15;97494.69;;;24.31;60.80
41044;BME280;51680;49.806;18.774;2022-07-23T03:27:19;97503.63;;;24.38;60.61
41044;BME280;51680;49.806;18.774;2022-07-23T03:30:21;97504.22;;;24.48;60.30
41044;BME280;51680;49.806;18.774;2022-07-23T03:33:42;97510.47;;;24.55;60.20
41044;BME280;51680;49.806;18.774;2022-07-23T03:36:44;97512.16;;;24.56;60.78
41044;BME280;51680;49.806;18.774;2022-07-23T03:39:46;97507.34;;;24.51;60.76
41044;BME280;51680;49.806;18.774;2022-07-23T03:42:49;97510.63;;;24.39;61.55
41044;BME280;51680;49.806;18.774;2022-07-23T03:45:51;97510.69;;;24.31;61.63
41044;BME280;51680;49.806;18.774;2022-07-23T03:48:53;97516.28;;;24.21;62.29
41044;BME280;51680;49.806;18.774;2022-07-23T03:51:54;97512.16;;;24.19;62.38
41044;BME280;51680;49.806;18.774;2022-07-23T03:54:56;97511.69;;;24.15;62.74
41044;BME280;51680;49.806;18.774;2022-07-23T03:58:18;97508.81;;;24.17;62.22
41044;BME280;51680;49.806;18.774;2022-07-23T04:01:20;97504.03;;;24.27;61.09
41044;BME280;51680;49.806;18.774;2022-07-23T04:04:22;97506.22;;;24.46;60.42
41044;BME280;51680;49.806;18.774;2022-07-23T04:07:24;97506.50;;;24.73;58.74
41044;BME280;51680;49.806;18.774;2022-07-23T04:10:27;97502.16;;;25.16;57.98
41044;BME280;51680;49.806;18.774;2022-07-23T04:13:30;97505.22;;;25.63;57.83
41044;BME280;51680;49.806;18.774;2022-07-23T04:16:35;97500.75;;;26.05;58.86
41044;BME280;51680;49.806;18.774;2022-07-23T04:19:37;97497.44;;;26.45;58.36
41044;BME280;51680;49.806;18.774;2022-07-23T04:22:40;97507.09;;;26.67;58.08
41044;BME280;51680;49.806;18.774;2022-07-23T04:25:43;97499.81;;;26.89;56.35
41044;BME280;51680;49.806;18.774;2022-07-23T04:29:04;97508.88;;;26.88;56.86
41044;BME280;51680;49.806;18.774;2022-07-23T04:32:06;97496.81;;;26.71;56.20
41044;BME280;51680;49.806;18.774;2022-07-23T04:35:08;97498.06;;;26.75;55.15
41044;BME280;51680;49.806;18.774;2022-07-23T04:38:11;97497.06;;;26.76;54.83
41044;BME280;51680;49.806;18.774;2022-07-23T04:41:13;97499.94;;;26.74;54.72
41044;BME280;51680;49.806;18.774;2022-07-23T04:44:17;97492.03;;;27.00;54.96
41044;BME280;51680;49.806;18.774;2022-07-23T04:47:18;97495.13;;;27.31;55.00
41044;BME280;51680;49.806;18.774;2022-07-23T04:50:21;97485.84;;;27.27;54.32
41044;BME280;51680;49.806;18.774;2022-07-23T04:53:24;97485.91;;;27.13;53.70
41044;BME280;51680;49.806;18.774;2022-07-23T04:56:29;97476.94;;;27.27;54.18
41044;BME280;51680;49.806;18.774;2022-07-23T04:59:32;97484.09;;;27.60;53.37
41044;BME280;51680;49.806;18.774;2022-07-23T05:02:38;97473.06;;;27.89;51.89
41044;BME280;51680;49.806;18.774;2022-07-23T05:05:40;97476.38;;;28.11;51.85
41044;BME280;51680;49.806;18.774;2022-07-23T05:08:47;97472.69;;;28.18;51.29
41044;BME280;51680;49.806;18.774;2022-07-23T05:11:49;97464.63;;;28.12;51.47
41044;BME280;51680;49.806;18.774;2022-07-23T05:14:52;97478.84;;;28.19;51.29
41044;BME280;51680;49.806;18.774;2022-07-23T05:17:55;97466.91;;;28.41;50.95
41044;BME280;51680;49.806;18.774;2022-07-23T05:20:57;97465.88;;;28.42;50.68
41044;BME280;51680;49.806;18.774;2022-07-23T05:23:59;97464.00;;;28.23;50.93
41044;BME280;51680;49.806;18.774;2022-07-23T05:27:01;97466.88;;;28.21;51.47
41044;BME280;51680;49.806;18.774;2022-07-23T05:30:05;97456.16;;;28.54;53.94
41044;BME280;51680;49.806;18.774;2022-07-23T05:33:10;97457.38;;;28.64;54.29
41044;BME280;51680;49.806;18.774;2022-07-23T05:36:13;97452.44;;;28.68;53.70
41044;BME280;51680;49.806;18.774;2022-07-23T05:39:22;97447.66;;;28.76;52.45
41044;BME280;51680;49.806;18.774;2022-07-23T05:42:23;97449.47;;;29.08;51.81
41044;BME280;51680;49.806;18.774;2022-07-23T05:45:27;97449.31;;;29.41;51.89
41044;BME280;51680;49.806;18.774;2022-07-23T05:48:29;97455.38;;;29.74;51.48
41044;BME280;51680;49.806;18.774;2022-07-23T05:51:37;97433.94;;;30.23;49.53
41044;BME280;51680;49.806;18.774;2022-07-23T05:54:40;97439.56;;;30.64;48.83
41044;BME280;51680;49.806;18.774;2022-07-23T05:57:42;97439.34;;;31.08;46.76
41044;BME280;51680;49.806;18.774;2022-07-23T06:00:45;97433.84;;;31.51;46.18
41044;BME280;51680;49.806;18.774;2022-07-23T06:03:47;97431.84;;;31.76;44.40
41044;BME280;51680;49.806;18.774;2022-07-23T06:06:49;97427.69;;;32.03;43.96
41044;BME280;51680;49.806;18.774;2022-07-23T06:09:50;97427.31;;;32.29;43.55
41044;BME280;51680;49.806;18.774;2022-07-23T06:12:53;97433.53;;;32.29;43.79
41044;BME280;51680;49.806;18.774;2022-07-23T06:15:56;97426.66;;;32.15;44.15
41044;BME280;51680;49.806;18.774;2022-07-23T06:18:57;97432.88;;;32.04;44.44
41044;BME280;51680;49.806;18.774;2022-07-23T06:22:02;97431.19;;;32.33;43.78
41044;BME280;51680;49.806;18.774;2022-07-23T06:25:05;97431.81;;;32.81;42.16
41044;BME280;51680;49.806;18.774;2022-07-23T06:28:07;97431.75;;;33.15;42.37
41044;BME280;51680;49.806;18.774;2022-07-23T06:31:29;97436.31;;;33.26;42.22
41044;BME280;51680;49.806;18.774;2022-07-23T06:34:32;97434.66;;;33.48;41.69
41044;BME280;51680;49.806;18.774;2022-07-23T06:37:34;97434.72;;;33.65;41.98
41044;BME280;51680;49.806;18.774;2022-07-23T06:40:35;97432.00;;;33.93;40.75
41044;BME280;51680;49.806;18.774;2022-07-23T06:43:37;97432.81;;;34.38;40.49
41044;BME280;51680;49.806;18.774;2022-07-23T06:46:43;97428.59;;;34.63;40.52
41044;BME280;51680;49.806;18.774;2022-07-23T06:49:45;97434.34;;;34.83;39.68
41044;BME280;51680;49.806;18.774;2022-07-23T06:52:47;97430.28;;;35.02;40.46
41044;BME280;51680;49.806;18.774;2022-07-23T06:55:50;97429.84;;;35.10;40.04
41044;BME280;51680;49.806;18.774;2022-07-23T06:58:51;97429.97;;;35.37;39.58
41044;BME280;51680;49.806;18.774;2022-07-23T07:01:54;97438.19;;;35.68;39.56
41044;BME280;51680;49.806;18.774;2022-07-23T07:04:58;97439.06;;;35.95;39.07
41044;BME280;51680;49.806;18.774;2022-07-23T07:08:00;97434.97;;;36.19;38.56
41044;BME280;51680;49.806;18.774;2022-07-23T07:11:02;97445.22;;;36.44;38.90
41044;BME280;51680;49.806;18.774;2022-07-23T07:14:04;97432.94;;;36.68;38.56
41044;BME280;51680;49.806;18.774;2022-07-23T07:17:08;97437.16;;;36.90;37.67
41044;BME280;51680;49.806;18.774;2022-07-23T07:20:11;97441.44;;;36.76;37.39
41044;BME280;51680;49.806;18.774;2022-07-23T07:23:13;97437.47;;;36.57;37.65
41044;BME280;51680;49.806;18.774;2022-07-23T07:26:14;97442.72;;;36.37;36.83
41044;BME280;51680;49.806;18.774;2022-07-23T07:29:16;97438.13;;;36.11;37.15
41044;BME280;51680;49.806;18.774;2022-07-23T07:32:19;97438.03;;;36.28;36.74
41044;BME280;51680;49.806;18.774;2022-07-23T07:35:21;97437.44;;;36.52;36.77
41044;BME280;51680;49.806;18.774;2022-07-23T07:38:23;97443.59;;;36.74;37.15
41044;BME280;51680;49.806;18.774;2022-07-23T07:41:25;97445.59;;;36.52;36.63
41044;BME280;51680;49.806;18.774;2022-07-23T07:44:27;97444.78;;;36.20;37.95
41044;BME280;51680;49.806;18.774;2022-07-23T07:47:30;97439.56;;;35.92;37.22
41044;BME280;51680;49.806;18.774;2022-07-23T07:50:32;97444.63;;;35.79;38.21
41044;BME280;51680;49.806;18.774;2022-07-23T07:53:33;97443.38;;;35.91;39.11
41044;BME280;51680;49.806;18.774;2022-07-23T07:56:35;97426.41;;;36.11;38.87
41044;BME280;51680;49.806;18.774;2022-07-23T07:59:37;97433.59;;;36.48;38.99
41044;BME280;51680;49.806;18.774;2022-07-23T08:02:44;97424.84;;;36.83;38.12
41044;BME280;51680;49.806;18.774;2022-07-23T08:05:46;97414.19;;;37.13;36.97
41044;BME280;51680;49.806;18.774;2022-07-23T08:08:47;97421.59;;;37.32;36.42
41044;BME280;51680;49.806;18.774;2022-07-23T08:11:49;97407.06;;;37.12;36.76
41044;BME280;51680;49.806;18.774;2022-07-23T08:14:52;97392.53;;;36.96;36.54
41044;BME280;51680;49.806;18.774;2022-07-23T08:17:55;97396.03;;;36.92;36.94
41044;BME280;51680;49.806;18.774;2022-07-23T08:20:57;97393.75;;;36.74;36.37
41044;BME280;51680;49.806;18.774;2022-07-23T08:23:59;97398.81;;;36.60;36.93
41044;BME280;51680;49.806;18.774;2022-07-23T08:27:00;97401.16;;;36.78;36.77
41044;BME280;51680;49.806;18.774;2022-07-23T08:30:04;97396.16;;;36.65;36.79
41044;BME280;51680;49.806;18.774;2022-07-23T08:33:10;97386.00;;;36.97;35.59
41044;BME280;51680;49.806;18.774;2022-07-23T08:36:13;97397.00;;;37.12;36.88
41044;BME280;51680;49.806;18.774;2022-07-23T08:39:16;97389.41;;;37.19;36.15
41044;BME280;51680;49.806;18.774;2022-07-23T08:42:18;97393.59;;;36.95;36.18
41044;BME280;51680;49.806;18.774;2022-07-23T08:45:22;97404.59;;;37.05;36.22
41044;BME280;51680;49.806;18.774;2022-07-23T08:48:27;97396.31;;;36.90;35.02
41044;BME280;51680;49.806;18.774;2022-07-23T08:51:29;97401.66;;;36.75;35.31
41044;BME280;51680;49.806;18.774;2022-07-23T08:54:31;97406.44;;;36.58;35.53
41044;BME280;51680;49.806;18.774;2022-07-23T08:57:33;97400.03;;;36.74;36.03
41044;BME280;51680;49.806;18.774;2022-07-23T09:00:34;97402.44;;;37.12;35.07
41044;BME280;51680;49.806;18.774;2022-07-23T09:03:38;97401.31;;;37.08;34.68
41044;BME280;51680;49.806;18.774;2022-07-23T09:06:40;97396.69;;;37.09;34.87
41044;BME280;51680;49.806;18.774;2022-07-23T09:09:41;97393.53;;;36.80;34.24
41044;BME280;51680;49.806;18.774;2022-07-23T09:12:43;97389.00;;;36.54;35.07
41044;BME280;51680;49.806;18.774;2022-07-23T09:15:48;97399.47;;;36.67;35.27
41044;BME280;51680;49.806;18.774;2022-07-23T09:18:53;97389.78;;;36.86;34.34
41044;BME280;51680;49.806;18.774;2022-07-23T09:22:18;97396.56;;;37.35;31.52
41044;BME280;51680;49.806;18.774;2022-07-23T09:25:20;97392.84;;;37.66;33.03
41044;BME280;51680;49.806;18.774;2022-07-23T09:28:22;97390.72;;;37.83;34.15
41044;BME280;51680;49.806;18.774;2022-07-23T09:31:25;97391.34;;;38.21;33.44
41044;BME280;51680;49.806;18.774;2022-07-23T09:34:29;97388.31;;;38.57;31.40
41044;BME280;51680;49.806;18.774;2022-07-23T09:37:33;97387.75;;;38.90;32.41
41044;BME280;51680;49.806;18.774;2022-07-23T09:40:35;97386.28;;;39.18;32.07
41044;BME280;51680;49.806;18.774;2022-07-23T09:43:37;97388.63;;;39.49;31.17
41044;BME280;51680;49.806;18.774;2022-07-23T09:46:39;97391.38;;;39.44;31.01
41044;BME280;51680;49.806;18.774;2022-07-23T09:49:57;97380.25;;;39.31;27.49
41044;BME280;51680;49.806;18.774;2022-07-23T09:52:59;97381.28;;;39.30;30.84
41044;BME280;51680;49.806;18.774;2022-07-23T09:56:02;97385.91;;;39.44;30.47
41044;BME280;51680;49.806;18.774;2022-07-23T09:59:03;97385.69;;;39.36;30.68
41044;BME280;51680;49.806;18.774;2022-07-23T10:02:07;97376.91;;;39.29;30.47
41044;BME280;51680;49.806;18.774;2022-07-23T10:05:21;97361.59;;;39.38;29.93
41044;BME280;51680;49.806;18.774;2022-07-23T10:08:47;97361.81;;;39.46;30.25
41044;BME280;51680;49.806;18.774;2022-07-23T10:12:12;97361.31;;;39.93;29.71
41044;BME280;51680;49.806;18.774;2022-07-23T10:15:35;97360.69;;;40.34;29.76
41044;BME280;51680;49.806;18.774;2022-07-23T10:18:37;97357.97;;;40.63;28.57
41044;BME280;51680;49.806;18.774;2022-07-23T10:21:42;97345.97;;;40.59;28.24
41044;BME280;51680;49.806;18.774;2022-07-23T10:24:52;97350.75;;;40.72;27.79
41044;BME280;51680;49.806;18.774;2022-07-23T10:28:21;97337.63;;;40.69;26.65
41044;BME280;51680;49.806;18.774;2022-07-23T10:31:35;97340.59;;;40.44;28.06
41044;BME280;51680;49.806;18.774;2022-07-23T10:34:44;97339.38;;;40.31;28.95
41044;BME280;51680;49.806;18.774;2022-07-23T10:37:55;97338.53;;;40.31;28.07
41044;BME280;51680;49.806;18.774;2022-07-23T10:41:00;97339.13;;;40.28;28.98
41044;BME280;51680;49.806;18.774;2022-07-23T10:44:07;97333.06;;;40.31;27.12
41044;BME280;51680;49.806;18.774;2022-07-23T10:47:10;97330.00;;;40.04;30.17
41044;BME280;51680;49.806;18.774;2022-07-23T10:50:23;97331.28;;;39.73;28.79
41044;BME280;51680;49.806;18.774;2022-07-23T10:53:27;97323.81;;;39.50;29.75
41044;BME280;51680;49.806;18.774;2022-07-23T10:57:04;97323.22;;;39.53;29.00
41044;BME280;51680;49.806;18.774;2022-07-23T11:00:16;97317.00;;;39.47;27.87
41044;BME280;51680;49.806;18.774;2022-07-23T11:03:30;97311.81;;;39.46;28.88
41044;BME280;51680;49.806;18.774;2022-07-23T11:07:07;97310.19;;;39.40;27.52
41044;BME280;51680;49.806;18.774;2022-07-23T11:10:31;97308.41;;;39.10;28.58
41044;BME280;51680;49.806;18.774;2022-07-23T11:13:41;97303.19;;;39.19;29.26
41044;BME280;51680;49.806;18.774;2022-07-23T11:16:46;97299.03;;;39.26;29.81
41044;BME280;51680;49.806;18.774;2022-07-23T11:20:12;97298.22;;;39.31;28.69
41044;BME280;51680;49.806;18.774;2022-07-23T11:23:16;97295.50;;;39.31;29.71
41044;BME280;51680;49.806;18.774;2022-07-23T11:26:46;97287.81;;;39.28;30.08
41044;BME280;51680;49.806;18.774;2022-07-23T11:29:49;97285.91;;;39.28;30.43
41044;BME280;51680;49.806;18.774;2022-07-23T11:32:52;97283.47;;;39.27;29.82
41044;BME280;51680;49.806;18.774;2022-07-23T11:36:02;97285.63;;;39.25;30.36
41044;BME280;51680;49.806;18.774;2022-07-23T11:39:05;97288.34;;;39.35;30.43
41044;BME280;51680;49.806;18.774;2022-07-23T11:42:09;97281.50;;;39.42;29.88
41044;BME280;51680;49.806;18.774;2022-07-23T11:45:11;97273.50;;;39.51;29.85
41044;BME280;51680;49.806;18.774;2022-07-23T11:48:18;97265.56;;;39.49;29.36
41044;BME280;51680;49.806;18.774;2022-07-23T11:51:25;97265.25;;;39.56;29.46
41044;BME280;51680;49.806;18.774;2022-07-23T11:54:28;97252.69;;;39.55;30.07
41044;BME280;51680;49.806;18.774;2022-07-23T11:57:32;97250.50;;;39.52;29.71
41044;BME280;51680;49.806;18.774;2022-07-23T12:00:34;97251.09;;;39.44;30.10
41044;BME280;51680;49.806;18.774;2022-07-23T12:03:35;97246.53;;;39.34;30.03
41044;BME280;51680;49.806;18.774;2022-07-23T12:06:37;97245.44;;;39.30;30.25
41044;BME280;51680;49.806;18.774;2022-07-23T12:09:43;97244.59;;;39.35;29.66
41044;BME280;51680;49.806;18.774;2022-07-23T12:12:49;97235.28;;;39.41;29.63
41044;BME280;51680;49.806;18.774;2022-07-23T12:15:52;97240.16;;;39.44;30.29
41044;BME280;51680;49.806;18.774;2022-07-23T12:18:56;97241.28;;;39.43;29.33
41044;BME280;51680;49.806;18.774;2022-07-23T12:21:57;97241.31;;;39.38;29.96
41044;BME280;51680;49.806;18.774;2022-07-23T12:25:00;97240.28;;;39.24;29.47
41044;BME280;51680;49.806;18.774;2022-07-23T12:28:08;97231.31;;;39.13;29.68
41044;BME280;51680;49.806;18.774;2022-07-23T12:31:10;97221.16;;;39.24;29.58
41044;BME280;51680;49.806;18.774;2022-07-23T12:34:14;97226.59;;;39.29;29.31
41044;BME280;51680;49.806;18.774;2022-07-23T12:37:29;97217.91;;;39.22;27.26
41044;BME280;51680;49.806;18.774;2022-07-23T12:40:33;97218.56;;;39.04;30.13
41044;BME280;51680;49.806;18.774;2022-07-23T12:43:39;97212.25;;;39.03;29.40
41044;BME280;51680;49.806;18.774;2022-07-23T12:46:41;97212.53;;;39.07;30.03
41044;BME280;51680;49.806;18.774;2022-07-23T12:49:43;97201.31;;;39.03;29.60
41044;BME280;51680;49.806;18.774;2022-07-23T12:52:45;97206.06;;;38.93;30.07
41044;BME280;51680;49.806;18.774;2022-07-23T12:55:47;97199.47;;;38.99;29.92
41044;BME280;51680;49.806;18.774;2022-07-23T12:58:52;97202.72;;;39.01;30.24
41044;BME280;51680;49.806;18.774;2022-07-23T13:01:56;97202.09;;;39.14;29.68
41044;BME280;51680;49.806;18.774;2022-07-23T13:04:59;97192.75;;;39.20;30.16
41044;BME280;51680;49.806;18.774;2022-07-23T13:08:01;97205.78;;;38.89;29.85
41044;BME280;51680;49.806;18.774;2022-07-23T13:11:04;97196.28;;;38.72;30.80
41044;BME280;51680;49.806;18.774;2022-07-23T13:14:07;97193.00;;;38.75;30.51
41044;BME280;51680;49.806;18.774;2022-07-23T13:17:09;97189.84;;;38.42;30.42
41044;BME280;51680;49.806;18.774;2022-07-23T13:20:11;97187.78;;;37.94;31.05
41044;BME280;51680;49.806;18.774;2022-07-23T13:23:14;97176.09;;;37.74;31.57
41044;BME280;51680;49.806;18.774;2022-07-23T13:26:16;97171.19;;;37.81;32.04
41044;BME280;51680;49.806;18.774;2022-07-23T13:29:19;97168.69;;;37.89;32.13
41044;BME280;51680;49.806;18.774;2022-07-23T13:32:21;97170.88;;;37.97;31.79
41044;BME280;51680;49.806;18.774;2022-07-23T13:35:23;97171.44;;;37.89;31.35
41044;BME280;51680;49.806;18.774;2022-07-23T13:38:26;97165.97;;;37.84;32.43
41044;BME280;51680;49.806;18.774;2022-07-23T13:41:28;97167.66;;;37.70;32.93
41044;BME280;51680;49.806;18.774;2022-07-23T13:44:31;97175.03;;;37.70;32.69
41044;BME280;51680;49.806;18.774;2022-07-23T13:47:33;97164.91;;;37.65;32.50
41044;BME280;51680;49.806;18.774;2022-07-23T13:50:35;97171.47;;;37.39;31.81
41044;BME280;51680;49.806;18.774;2022-07-23T13:53:37;97177.66;;;37.05;32.62
41044;BME280;51680;49.806;18.774;2022-07-23T13:56:39;97177.34;;;36.76;33.01
41044;BME280;51680;49.806;18.774;2022-07-23T13:59:43;97167.69;;;36.49;33.51
41044;BME280;51680;49.806;18.774;2022-07-23T14:02:44;97164.59;;;36.20;34.50
41044;BME280;51680;49.806;18.774;2022-07-23T14:05:46;97157.44;;;36.09;34.15
41044;BME280;51680;49.806;18.774;2022-07-23T14:08:48;97161.47;;;36.02;34.42
41044;BME280;51680;49.806;18.774;2022-07-23T14:11:50;97180.47;;;35.97;35.02
41044;BME280;51680;49.806;18.774;2022-07-23T14:14:53;97178.00;;;35.90;35.23
41044;BME280;51680;49.806;18.774;2022-07-23T14:17:56;97188.28;;;35.83;35.55
41044;BME280;51680;49.806;18.774;2022-07-23T14:20:58;97199.59;;;35.39;36.46
41044;BME280;51680;49.806;18.774;2022-07-23T14:23:59;97202.34;;;35.17;36.74
41044;BME280;51680;49.806;18.774;2022-07-23T14:27:02;97201.03;;;34.93;37.36
41044;BME280;51680;49.806;18.774;2022-07-23T14:30:07;97206.66;;;34.65;38.33
41044;BME280;51680;49.806;18.774;2022-07-23T14:33:09;97192.34;;;33.72;40.38
41044;BME280;51680;49.806;18.774;2022-07-23T14:36:11;97210.28;;;33.29;41.21
41044;BME280;51680;49.806;18.774;2022-07-23T14:39:13;97217.28;;;32.80;41.76
41044;BME280;51680;49.806;18.774;2022-07-23T14:42:14;97204.94;;;31.99;43.93
41044;BME280;51680;49.806;18.774;2022-07-23T14:45:18;97224.72;;;31.35;45.07
41044;BME280;51680;49.806;18.774;2022-07-23T14:48:19;97242.69;;;31.00;45.10
41044;BME280;51680;49.806;18.774;2022-07-23T14:51:21;97265.50;;;30.86;45.52
41044;BME280;51680;49.806;18.774;2022-07-23T14:54:23;97275.25;;;30.15;47.17
41044;BME280;51680;49.806;18.774;2022-07-23T14:57:26;97286.72;;;29.80;49.79
41044;BME280;51680;49.806;18.774;2022-07-23T15:00:29;97281.81;;;29.45;50.51
41044;BME280;51680;49.806;18.774;2022-07-23T15:03:31;97275.63;;;29.45;50.43
41044;BME280;51680;49.806;18.774;2022-07-23T15:06:33;97264.63;;;29.22;52.46
41044;BME280;51680;49.806;18.774;2022-07-23T15:09:34;97268.69;;;29.31;53.35
41044;BME280;51680;49.806;18.774;2022-07-23T15:12:36;97260.69;;;29.49;53.92
41044;BME280;51680;49.806;18.774;2022-07-23T15:15:57;97269.78;;;29.79;54.42
41044;BME280;51680;49.806;18.774;2022-07-23T15:18:59;97267.28;;;30.02;54.43
41044;BME280;51680;49.806;18.774;2022-07-23T15:22:02;97266.44;;;30.26;54.10
41044;BME280;51680;49.806;18.774;2022-07-23T15:25:05;97271.66;;;30.39;52.89
41044;BME280;51680;49.806;18.774;2022-07-23T15:28:07;97282.97;;;30.30;52.37
41044;BME280;51680;49.806;18.774;2022-07-23T15:31:10;97278.78;;;30.09;53.16
41044;BME280;51680;49.806;18.774;2022-07-23T15:34:12;97280.72;;;29.84;54.30
41044;BME280;51680;49.806;18.774;2022-07-23T15:37:14;97284.72;;;29.75;54.60
41044;BME280;51680;49.806;18.774;2022-07-23T15:40:16;97280.09;;;29.82;55.65
41044;BME280;51680;49.806;18.774;2022-07-23T15:43:17;97272.34;;;29.92;56.01
41044;BME280;51680;49.806;18.774;2022-07-23T15:46:21;97271.16;;;30.06;56.52
41044;BME280;51680;49.806;18.774;2022-07-23T15:49:23;97262.97;;;30.19;56.00
41044;BME280;51680;49.806;18.774;2022-07-23T15:52:25;97268.06;;;30.27;55.16
41044;BME280;51680;49.806;18.774;2022-07-23T15:55:27;97267.31;;;30.20;55.04
41044;BME280;51680;49.806;18.774;2022-07-23T15:58:29;97268.88;;;29.85;56.67
41044;BME280;51680;49.806;18.774;2022-07-23T16:01:33;97279.50;;;29.56;57.32
41044;BME280;51680;49.806;18.774;2022-07-23T16:04:34;97293.59;;;29.51;58.37